Time;durP1;ratioP1;P1;durP2;ratioP2;P2;SDS_P1;SDS_P2;PMS_P1;PMS_P2;Temp;Humidity;BMP_temperature;BMP_pressure;BME280_temperature;BME280_humidity;BME280_pressure;Samples;Min_cycle;Max_cycle;Signal;HPM_P1;HPM_P2
2021/11/14 00:02:00;;;;;;;0.10;0.10;;;;;19.20;100333.00;;;;5107854;28;20071;-76
2021/11/14 00:04:30;;;;;;;1.17;0.57;;;;;19.30;100336.00;;;;5109500;28;20075;-74
2021/11/14 00:06:59;;;;;;;2.60;0.50;;;;;19.40;100322.00;;;;5109191;28;20047;-75
2021/11/14 00:09:30;;;;;;;0.00;0.00;;;;;19.30;100335.00;;;;5109500;28;20040;-75
2021/11/14 00:11:59;;;;;;;11.95;1.35;;;;;19.50;100330.00;;;;5109512;28;20035;-76
2021/11/14 00:14:29;;;;;;;0.00;0.00;;;;;19.30;100332.00;;;;5109920;28;20056;-75
2021/11/14 00:16:59;;;;;;;0.00;0.00;;;;;19.20;100352.00;;;;5109237;28;20104;-75
2021/11/14 00:19:28;;;;;;;0.25;0.05;;;;;19.20;100350.00;;;;5108813;28;20043;-76
2021/11/14 00:21:58;;;;;;;0.00;0.00;;;;;19.00;100352.00;;;;5108761;28;20576;-75
2021/11/14 00:24:27;;;;;;;0.20;0.20;;;;;18.90;100341.00;;;;5107963;28;20070;-76
2021/11/14 00:26:56;;;;;;;0.00;0.00;;;;;18.90;100331.00;;;;5108624;28;20562;-75
2021/11/14 00:29:26;;;;;;;0.17;0.17;;;;;18.80;100353.00;;;;5108958;28;20395;-75
2021/11/14 00:31:55;;;;;;;0.00;0.00;;;;;18.70;100332.00;;;;5090569;28;20120;-75
2021/11/14 00:34:25;;;;;;;0.30;0.30;;;;;18.70;100354.00;;;;5108458;28;20748;-76
2021/11/14 00:36:54;;;;;;;0.00;0.00;;;;;18.80;100367.00;;;;5108955;28;20048;-75
2021/11/14 00:39:24;;;;;;;0.00;0.00;;;;;18.90;100354.00;;;;5107985;28;20051;-75
2021/11/14 00:41:54;;;;;;;0.38;0.38;;;;;18.90;100355.00;;;;5108701;28;20066;-75
2021/11/14 00:44:23;;;;;;;0.00;0.00;;;;;18.90;100363.00;;;;5108488;28;20043;-75
2021/11/14 00:46:53;;;;;;;0.00;0.00;;;;;18.80;100364.00;;;;5108820;28;20043;-75
2021/11/14 00:49:22;;;;;;;0.00;0.00;;;;;18.50;100347.00;;;;5108442;28;20532;-75
2021/11/14 00:51:53;;;;;;;0.00;0.00;;;;;18.40;100357.00;;;;5108033;28;20058;-76
2021/11/14 00:54:22;;;;;;;0.00;0.00;;;;;18.30;100349.00;;;;5108482;28;20136;-75
2021/11/14 00:56:52;;;;;;;0.00;0.00;;;;;18.20;100341.00;;;;5108170;28;20043;-75
2021/11/14 00:59:21;;;;;;;0.00;0.00;;;;;18.20;100344.00;;;;5091221;28;20126;-75
2021/11/14 01:01:51;;;;;;;0.20;0.20;;;;;18.30;100347.00;;;;5090458;28;20051;-76
2021/11/14 01:04:20;;;;;;;0.20;0.10;;;;;18.20;100365.00;;;;5107616;28;20585;-75
2021/11/14 01:06:49;;;;;;;0.10;0.10;;;;;18.30;100355.00;;;;5108154;28;20047;-76
2021/11/14 01:09:19;;;;;;;0.00;0.00;;;;;18.30;100373.00;;;;5108155;28;20051;-75
2021/11/14 01:11:48;;;;;;;0.03;0.03;;;;;18.20;100366.00;;;;5108117;28;20053;-76
2021/11/14 01:14:18;;;;;;;0.00;0.00;;;;;18.10;100361.00;;;;5107783;28;20043;-75
2021/11/14 01:16:48;;;;;;;0.45;0.40;;;;;18.00;100368.00;;;;5107605;28;20042;-76
2021/11/14 01:19:17;;;;;;;0.00;0.00;;;;;18.00;100378.00;;;;5108391;28;20040;-75
2021/11/14 01:21:47;;;;;;;0.00;0.00;;;;;17.90;100376.00;;;;5108596;28;20051;-78
2021/11/14 01:24:17;;;;;;;0.00;0.00;;;;;17.80;100388.00;;;;5107602;28;20044;-75
2021/11/14 01:26:47;;;;;;;0.00;0.00;;;;;18.00;100392.00;;;;5107427;28;20043;-75
2021/11/14 01:29:16;;;;;;;0.00;0.00;;;;;18.30;100413.00;;;;5088985;28;20104;-76
2021/11/14 01:31:46;;;;;;;0.15;0.15;;;;;18.00;100418.00;;;;5107274;28;20050;-75
2021/11/14 01:34:15;;;;;;;0.03;0.03;;;;;18.20;100401.00;;;;5107412;28;20071;-75
2021/11/14 01:36:44;;;;;;;0.43;0.35;;;;;18.40;100404.00;;;;5089334;28;20506;-75
2021/11/14 01:39:14;;;;;;;0.10;0.10;;;;;18.30;100403.00;;;;5107366;28;20050;-76
2021/11/14 01:41:43;;;;;;;0.35;0.35;;;;;18.40;100394.00;;;;5107121;28;20399;-75
2021/11/14 01:44:13;;;;;;;0.00;0.00;;;;;18.10;100404.00;;;;5107888;28;20047;-75
2021/11/14 01:46:44;;;;;;;0.00;0.00;;;;;18.30;100387.00;;;;5107148;28;20055;-76
2021/11/14 01:49:14;;;;;;;;;;;;;18.50;100400.00;;;;5107730;28;20502;-76
2021/11/14 01:51:56;;;;;;;9.05;1.77;;;;;18.70;100413.00;;;;5091481;28;20435;-75
2021/11/14 01:54:26;;;;;;;0.00;0.00;;;;;18.60;100407.00;;;;5107285;28;20422;-75
2021/11/14 01:56:56;;;;;;;0.00;0.00;;;;;18.60;100409.00;;;;5107231;28;20044;-76
2021/11/14 01:59:25;;;;;;;0.25;0.20;;;;;18.60;100413.00;;;;5107040;28;20071;-75
2021/11/14 02:01:55;;;;;;;2.05;0.98;;;;;18.70;100424.00;;;;5107101;28;21138;-76
2021/11/14 02:04:25;;;;;;;0.32;0.20;;;;;18.70;100422.00;;;;5106720;28;20126;-75
2021/11/14 02:06:54;;;;;;;1.75;1.05;;;;;18.70;100399.00;;;;5107515;28;20513;-74
2021/11/14 02:09:24;;;;;;;0.00;0.00;;;;;18.60;100412.00;;;;5107358;28;20051;-74
2021/11/14 02:11:53;;;;;;;2.20;1.08;;;;;18.50;100419.00;;;;5107047;28;20056;-75
2021/11/14 02:14:23;;;;;;;0.00;0.00;;;;;18.60;100410.00;;;;5106750;28;20426;-74
2021/11/14 02:16:53;;;;;;;0.47;0.47;;;;;18.50;100411.00;;;;5089139;28;20038;-75
2021/11/14 02:19:23;;;;;;;0.13;0.13;;;;;18.30;100402.00;;;;5106525;28;20143;-75
2021/11/14 02:21:54;;;;;;;0.00;0.00;;;;;18.10;100409.00;;;;5107491;28;20415;-75
2021/11/14 02:24:24;;;;;;;;;;;;;17.90;100408.00;;;;5090201;28;20046;-75
2021/11/14 02:26:53;;;;;;;0.00;0.00;;;;;17.70;100406.00;;;;5110991;28;19923;-75
2021/11/14 02:29:23;;;;;;;0.32;0.32;;;;;17.60;100397.00;;;;5111392;28;20066;-75
2021/11/14 02:31:52;;;;;;;0.00;0.00;;;;;17.60;100425.00;;;;5110776;28;20035;-75
2021/11/14 02:34:22;;;;;;;0.00;0.00;;;;;17.50;100413.00;;;;5110838;28;20046;-74
2021/11/14 02:36:51;;;;;;;0.00;0.00;;;;;17.60;100383.00;;;;5110644;28;20065;-74
2021/11/14 02:39:21;;;;;;;0.20;0.20;;;;;17.50;100401.00;;;;5111377;28;20047;-74
2021/11/14 02:41:50;;;;;;;0.10;0.10;;;;;17.50;100395.00;;;;5110729;28;20100;-75
2021/11/14 02:44:20;;;;;;;1.80;0.32;;;;;17.70;100395.00;;;;5110429;28;20047;-74
2021/11/14 02:46:53;;;;;;;1.55;0.28;;;;;17.70;100384.00;;;;5110801;28;20590;-73
2021/11/14 02:49:22;;;;;;;0.00;0.00;;;;;17.80;100387.00;;;;5110762;28;20051;-75
2021/11/14 02:51:52;;;;;;;0.00;0.00;;;;;17.70;100382.00;;;;5110867;28;20043;-74
2021/11/14 02:54:22;;;;;;;2.47;0.73;;;;;17.70;100366.00;;;;5110632;28;20051;-73
2021/11/14 02:56:51;;;;;;;0.10;0.10;;;;;17.90;100369.00;;;;5107878;28;20497;-76
2021/11/14 02:59:21;;;;;;;0.13;0.13;;;;;18.00;100375.00;;;;5110027;28;20051;-75
2021/11/14 03:01:55;;;;;;;0.95;0.25;;;;;18.20;100387.00;;;;5110821;28;20059;-74
2021/11/14 03:04:27;;;;;;;0.45;0.45;;;;;18.20;100370.00;;;;5110358;28;20044;-75
2021/11/14 03:07:00;;;;;;;0.25;0.25;;;;;18.40;100357.00;;;;5110430;28;20043;-74
2021/11/14 03:09:32;;;;;;;2.83;1.33;;;;;18.50;100336.00;;;;5111018;28;20453;-75
2021/11/14 03:12:02;;;;;;;0.00;0.00;;;;;18.40;100335.00;;;;5109813;28;20078;-73
2021/11/14 03:14:32;;;;;;;0.00;0.00;;;;;18.30;100351.00;;;;5110769;28;20544;-75
2021/11/14 03:17:02;;;;;;;0.00;0.00;;;;;18.20;100352.00;;;;5110345;28;20047;-74
2021/11/14 03:19:33;;;;;;;0.15;0.15;;;;;18.10;100333.00;;;;5109236;28;20047;-74
2021/11/14 03:22:03;;;;;;;0.00;0.00;;;;;18.00;100332.00;;;;5110247;28;20035;-77
2021/11/14 03:24:32;;;;;;;0.00;0.00;;;;;17.80;100339.00;;;;5110133;28;20085;-77
2021/11/14 03:27:02;;;;;;;0.47;0.47;;;;;18.10;100326.00;;;;5110101;28;20043;-76
2021/11/14 03:29:32;;;;;;;0.00;0.00;;;;;18.20;100334.00;;;;5109964;28;20043;-76
2021/11/14 03:32:02;;;;;;;0.00;0.00;;;;;18.00;100319.00;;;;5110205;28;20044;-74
2021/11/14 03:34:31;;;;;;;0.68;0.65;;;;;17.80;100332.00;;;;5109692;28;20048;-74
2021/11/14 03:37:14;;;;;;;0.10;0.10;;;;;18.00;100326.00;;;;5109823;28;20051;-75
2021/11/14 03:39:44;;;;;;;0.00;0.00;;;;;17.90;100320.00;;;;5109607;28;20047;-75
2021/11/14 03:42:15;;;;;;;0.00;0.00;;;;;17.70;100307.00;;;;5091652;28;20055;-74
2021/11/14 03:44:45;;;;;;;0.40;0.40;;;;;18.00;100331.00;;;;5109640;28;20039;-75
2021/11/14 03:47:15;;;;;;;0.20;0.20;;;;;18.10;100313.00;;;;5110392;28;20467;-75
2021/11/14 03:49:45;;;;;;;0.35;0.35;;;;;18.20;100301.00;;;;5109468;28;20088;-75
2021/11/14 03:52:14;;;;;;;1.15;0.68;;;;;18.30;100330.00;;;;5109614;28;20510;-74
2021/11/14 03:54:43;;;;;;;0.10;0.10;;;;;17.90;100323.00;;;;5109296;28;20531;-74
2021/11/14 03:57:26;;;;;;;0.10;0.10;;;;;17.90;100319.00;;;;5109739;28;20043;-75
2021/11/14 03:59:55;;;;;;;0.00;0.00;;;;;18.10;100306.00;;;;5109206;28;20044;-75
2021/11/14 04:02:25;;;;;;;0.25;0.20;;;;;18.10;100312.00;;;;5109375;28;20055;-75
2021/11/14 04:04:55;;;;;;;0.03;0.03;;;;;18.20;100322.00;;;;5109538;28;20097;-74
2021/11/14 04:07:24;;;;;;;0.20;0.20;;;;;18.00;100300.00;;;;5109170;28;20035;-75
2021/11/14 04:09:53;;;;;;;0.70;0.70;;;;;17.90;100324.00;;;;5109557;28;20052;-75
2021/11/14 04:12:23;;;;;;;0.57;0.52;;;;;17.80;100317.00;;;;5108915;28;20076;-75
2021/11/14 04:14:52;;;;;;;0.30;0.30;;;;;17.60;100321.00;;;;5108919;28;20122;-75
2021/11/14 04:17:22;;;;;;;0.00;0.00;;;;;17.40;100337.00;;;;5108711;28;20051;-74
2021/11/14 04:19:51;;;;;;;0.32;0.32;;;;;17.30;100335.00;;;;5108855;28;20042;-75
2021/11/14 04:22:21;;;;;;;0.00;0.00;;;;;17.30;100321.00;;;;5108785;28;20047;-75
2021/11/14 04:24:50;;;;;;;0.32;0.30;;;;;17.10;100330.00;;;;5108820;28;20494;-75
2021/11/14 04:27:20;;;;;;;0.20;0.10;;;;;17.10;100338.00;;;;5109395;28;20525;-76
2021/11/14 04:29:50;;;;;;;0.00;0.00;;;;;17.00;100347.00;;;;5090584;28;20087;-75
2021/11/14 04:32:19;;;;;;;0.10;0.10;;;;;16.90;100326.00;;;;5109041;28;20058;-75
2021/11/14 04:34:48;;;;;;;0.00;0.00;;;;;16.80;100319.00;;;;5108553;28;20046;-74
2021/11/14 04:37:18;;;;;;;0.00;0.00;;;;;16.70;100360.00;;;;5108538;28;20124;-74
2021/11/14 04:39:47;;;;;;;0.90;0.73;;;;;16.60;100343.00;;;;5108681;28;20043;-75
2021/11/14 04:42:17;;;;;;;0.00;0.00;;;;;16.80;100352.00;;;;5108785;28;20510;-75
2021/11/14 04:44:49;;;;;;;0.20;0.20;;;;;16.80;100358.00;;;;5108568;28;20051;-75
2021/11/14 04:47:19;;;;;;;0.22;0.22;;;;;16.60;100347.00;;;;5090133;28;20047;-75
2021/11/14 04:49:48;;;;;;;0.73;0.63;;;;;16.50;100338.00;;;;5109151;28;20506;-75
2021/11/14 04:52:18;;;;;;;0.00;0.00;;;;;16.50;100344.00;;;;5108559;28;20047;-74
2021/11/14 04:54:47;;;;;;;1.35;0.47;;;;;16.40;100331.00;;;;5108276;28;20082;-74
2021/11/14 04:57:18;;;;;;;1.17;0.65;;;;;16.30;100333.00;;;;5108371;28;20055;-75
2021/11/14 04:59:50;;;;;;;0.45;0.45;;;;;16.20;100335.00;;;;5089635;28;20047;-75
2021/11/14 05:02:20;;;;;;;0.80;0.50;;;;;16.00;100330.00;;;;5108302;28;20046;-74
2021/11/14 05:04:51;;;;;;;0.00;0.00;;;;;15.90;100333.00;;;;5108328;28;20130;-74
2021/11/14 05:07:20;;;;;;;0.28;0.28;;;;;15.80;100351.00;;;;5108388;28;20039;-75
2021/11/14 05:09:49;;;;;;;0.30;0.17;;;;;15.70;100334.00;;;;5107764;28;20039;-74
2021/11/14 05:12:19;;;;;;;0.00;0.00;;;;;15.60;100355.00;;;;5108009;28;20048;-75
2021/11/14 05:14:48;;;;;;;0.08;0.08;;;;;15.50;100316.00;;;;5108112;28;20096;-75
2021/11/14 05:17:18;;;;;;;0.35;0.30;;;;;15.50;100359.00;;;;5108290;28;20410;-75
2021/11/14 05:19:47;;;;;;;0.00;0.00;;;;;15.40;100348.00;;;;5107948;28;20130;-74
2021/11/14 05:22:17;;;;;;;1.20;0.82;;;;;15.40;100350.00;;;;5107985;28;20040;-74
2021/11/14 05:24:47;;;;;;;1.05;0.95;;;;;15.30;100346.00;;;;5107938;28;20044;-75
2021/11/14 05:27:16;;;;;;;0.40;0.40;;;;;15.20;100333.00;;;;5107470;28;20047;-74
2021/11/14 05:29:46;;;;;;;9.55;1.00;;;;;15.10;100337.00;;;;5108047;28;20059;-75
2021/11/14 05:32:15;;;;;;;0.52;0.52;;;;;15.00;100310.00;;;;5108155;28;20051;-75
2021/11/14 05:34:46;;;;;;;0.35;0.35;;;;;15.10;100346.00;;;;5107920;28;20040;-74
2021/11/14 05:37:16;;;;;;;0.00;0.00;;;;;15.00;100325.00;;;;5108238;28;20043;-75
2021/11/14 05:39:45;;;;;;;0.20;0.20;;;;;15.00;100356.00;;;;5089501;28;20047;-74
2021/11/14 05:42:15;;;;;;;0.70;0.68;;;;;15.00;100338.00;;;;5107545;28;20042;-75
2021/11/14 05:44:44;;;;;;;0.00;0.00;;;;;14.90;100373.00;;;;5107387;28;20046;-75
2021/11/14 05:47:14;;;;;;;0.00;0.00;;;;;14.90;100376.00;;;;5107524;28;20085;-74
2021/11/14 05:49:44;;;;;;;0.00;0.00;;;;;14.90;100386.00;;;;5088663;28;20047;-74
2021/11/14 05:52:13;;;;;;;0.57;0.57;;;;;14.80;100372.00;;;;5107265;28;20063;-74
2021/11/14 05:54:43;;;;;;;0.32;0.32;;;;;14.90;100373.00;;;;5089298;28;20478;-75
2021/11/14 05:57:13;;;;;;;0.20;0.20;;;;;14.80;100369.00;;;;5089491;28;20054;-75
2021/11/14 05:59:57;;;;;;;0.03;0.03;;;;;14.70;100368.00;;;;5106736;28;20035;-75
2021/11/14 06:07:32;;;;;;;0.43;0.43;;;;;14.70;100387.00;;;;5107168;28;20040;-75
2021/11/14 06:10:02;;;;;;;0.45;0.13;;;;;14.70;100392.00;;;;5106712;28;20044;-76
2021/11/14 06:12:34;;;;;;;0.20;0.20;;;;;14.60;100387.00;;;;5106862;28;20414;-75
2021/11/14 06:15:07;;;;;;;0.32;0.32;;;;;14.60;100385.00;;;;5107492;28;20511;-75
2021/11/14 06:17:37;;;;;;;1.17;0.95;;;;;14.60;100406.00;;;;5107542;28;20049;-75
2021/11/14 06:20:07;;;;;;;0.10;0.10;;;;;14.60;100403.00;;;;5107079;28;20040;-75
2021/11/14 06:22:36;;;;;;;0.68;0.63;;;;;14.60;100421.00;;;;5107735;28;20051;-74
2021/11/14 06:25:07;;;;;;;0.00;0.00;;;;;14.50;100424.00;;;;5088467;28;20507;-75
2021/11/14 06:27:38;;;;;;;0.73;0.73;;;;;14.50;100399.00;;;;5106978;28;20122;-75
2021/11/14 06:30:12;;;;;;;0.00;0.00;;;;;14.50;100404.00;;;;5107131;28;20544;-75
2021/11/14 06:32:42;;;;;;;0.00;0.00;;;;;14.40;100407.00;;;;5107225;28;20731;-74
2021/11/14 06:35:12;;;;;;;0.00;0.00;;;;;14.30;100418.00;;;;5106305;28;20063;-74
2021/11/14 06:37:41;;;;;;;0.10;0.10;;;;;14.30;100427.00;;;;5106789;28;20055;-75
2021/11/14 06:40:12;;;;;;;0.10;0.10;;;;;14.40;100434.00;;;;5107040;28;20051;-75
2021/11/14 06:42:42;;;;;;;0.73;0.20;;;;;14.50;100409.00;;;;5106811;28;20073;-75
2021/11/14 06:45:12;;;;;;;0.85;0.45;;;;;14.40;100418.00;;;;5106639;28;20759;-75
2021/11/14 06:47:41;;;;;;;0.98;0.22;;;;;14.40;100442.00;;;;5106952;28;20392;-75
2021/11/14 06:50:12;;;;;;;0.00;0.00;;;;;14.40;100420.00;;;;5106714;28;20055;-74
2021/11/14 06:52:43;;;;;;;0.10;0.10;;;;;14.20;100421.00;;;;5106457;28;20055;-75
2021/11/14 06:55:14;;;;;;;;;;;;;14.20;100433.00;;;;5089831;28;20035;-74
2021/11/14 06:57:45;;;;;;;0.63;0.63;;;;;14.20;100412.00;;;;5106708;28;19973;-75
2021/11/14 07:00:19;;;;;;;0.00;0.00;;;;;14.30;100429.00;;;;5106236;28;20052;-74
2021/11/14 07:02:49;;;;;;;0.00;0.00;;;;;14.20;100424.00;;;;5106587;28;20478;-74
2021/11/14 07:05:19;;;;;;;0.00;0.00;;;;;14.30;100416.00;;;;5106420;28;20126;-75
2021/11/14 07:07:49;;;;;;;0.00;0.00;;;;;14.30;100431.00;;;;5089160;28;20036;-75
2021/11/14 07:10:20;;;;;;;0.00;0.00;;;;;14.20;100442.00;;;;5107465;28;20044;-74
2021/11/14 07:12:50;;;;;;;1.27;0.22;;;;;14.10;100416.00;;;;5110374;28;20051;-75
2021/11/14 07:15:20;;;;;;;0.25;0.25;;;;;14.20;100416.00;;;;5110712;28;20475;-75
2021/11/14 07:17:49;;;;;;;0.00;0.00;;;;;14.20;100429.00;;;;5110307;28;20042;-75
2021/11/14 07:20:19;;;;;;;0.00;0.00;;;;;14.10;100440.00;;;;5110371;28;20043;-74
2021/11/14 07:22:49;;;;;;;0.20;0.20;;;;;14.10;100425.00;;;;5110016;28;20514;-74
2021/11/14 07:25:19;;;;;;;0.93;0.90;;;;;14.20;100409.00;;;;5091737;28;20399;-75
2021/11/14 07:27:51;;;;;;;0.00;0.00;;;;;14.10;100423.00;;;;5091798;28;20148;-74
2021/11/14 07:30:23;;;;;;;3.40;1.10;;;;;13.90;100424.00;;;;5110126;28;20043;-75
2021/11/14 07:32:53;;;;;;;;;;;;;14.00;100444.00;;;;5111064;28;20044;-75
2021/11/14 07:35:25;;;;;;;0.30;0.30;;;;;14.00;100411.00;;;;5109885;28;19923;-75
2021/11/14 07:37:55;;;;;;;0.00;0.00;;;;;14.00;100413.00;;;;5109757;28;20380;-74
2021/11/14 07:40:25;;;;;;;0.00;0.00;;;;;13.90;100411.00;;;;5091472;28;20039;-74
2021/11/14 07:42:55;;;;;;;1.77;1.27;;;;;13.90;100433.00;;;;5109714;28;20797;-75
2021/11/14 07:45:27;;;;;;;0.15;0.15;;;;;14.00;100447.00;;;;5109872;28;20052;-74
2021/11/14 07:47:57;;;;;;;0.00;0.00;;;;;14.30;100439.00;;;;5109623;28;20414;-74
2021/11/14 07:50:29;;;;;;;2.67;1.73;;;;;14.30;100442.00;;;;5109733;28;20489;-75
2021/11/14 07:53:00;;;;;;;0.00;0.00;;;;;14.30;100441.00;;;;5091956;28;20036;-74
2021/11/14 07:55:31;;;;;;;0.10;0.03;;;;;14.30;100430.00;;;;5110263;28;20048;-74
2021/11/14 07:58:12;;;;;;;0.30;0.30;;;;;14.20;100442.00;;;;5109483;28;20040;-75
2021/11/14 08:00:42;;;;;;;1.05;0.82;;;;;14.20;100426.00;;;;5109718;28;20522;-75
2021/11/14 08:03:12;;;;;;;0.65;0.60;;;;;14.20;100425.00;;;;5109551;28;20518;-74
2021/11/14 08:05:47;;;;;;;0.00;0.00;;;;;14.10;100417.00;;;;5109729;28;20032;-76
2021/11/14 08:08:17;;;;;;;0.20;0.20;;;;;14.10;100435.00;;;;5091556;28;20135;-75
2021/11/14 08:10:46;;;;;;;0.00;0.00;;;;;14.00;100419.00;;;;5108842;28;20043;-75
2021/11/14 08:13:16;;;;;;;1.45;0.57;;;;;14.00;100426.00;;;;5108875;28;20051;-74
2021/11/14 08:15:45;;;;;;;0.10;0.10;;;;;14.00;100434.00;;;;5109786;28;20055;-75
2021/11/14 08:18:17;;;;;;;0.40;0.40;;;;;14.00;100418.00;;;;5109740;28;20120;-75
2021/11/14 08:20:49;;;;;;;0.00;0.00;;;;;14.10;100421.00;;;;5108846;28;20046;-74
2021/11/14 08:23:20;;;;;;;0.00;0.00;;;;;14.10;100425.00;;;;5108331;28;20043;-75
2021/11/14 08:25:51;;;;;;;1.00;0.73;;;;;14.10;100423.00;;;;5090672;28;20152;-75
2021/11/14 08:28:20;;;;;;;0.00;0.00;;;;;14.10;100412.00;;;;5108968;28;20051;-76
2021/11/14 08:30:50;;;;;;;1.10;0.88;;;;;14.20;100416.00;;;;5108634;28;20194;-75
2021/11/14 08:33:37;;;;;;;1.13;0.50;;;;;14.10;100432.00;;;;5108558;28;20047;-75
2021/11/14 08:36:07;;;;;;;0.00;0.00;;;;;14.10;100403.00;;;;5108778;28;20793;-75
2021/11/14 08:38:40;;;;;;;0.00;0.00;;;;;14.20;100409.00;;;;5109232;28;21011;-75
2021/11/14 08:41:09;;;;;;;3.15;0.93;;;;;14.20;100406.00;;;;5107799;28;20039;-75
2021/11/14 08:43:40;;;;;;;0.43;0.43;;;;;14.30;100405.00;;;;5105921;28;20066;-76
2021/11/14 08:46:11;;;;;;;0.00;0.00;;;;;14.30;100423.00;;;;5108297;28;20058;-75
2021/11/14 08:48:41;;;;;;;1.90;1.63;;;;;14.40;100412.00;;;;5108133;28;20043;-75
2021/11/14 08:51:11;;;;;;;0.60;0.60;;;;;14.50;100420.00;;;;5108542;28;20095;-75
2021/11/14 08:53:41;;;;;;;0.20;0.20;;;;;14.50;100416.00;;;;5108166;28;20058;-76
2021/11/14 08:56:10;;;;;;;0.43;0.43;;;;;14.60;100424.00;;;;5108360;28;20433;-75
2021/11/14 08:58:41;;;;;;;0.17;0.17;;;;;14.70;100431.00;;;;5108708;28;20040;-75
2021/11/14 09:01:11;;;;;;;0.00;0.00;;;;;14.80;100427.00;;;;5107973;28;20071;-75
2021/11/14 09:03:41;;;;;;;0.00;0.00;;;;;14.90;100432.00;;;;5108621;28;20071;-75
2021/11/14 09:06:11;;;;;;;1.55;0.57;;;;;15.00;100424.00;;;;5108644;28;20043;-76
2021/11/14 09:08:40;;;;;;;0.03;0.03;;;;;15.10;100417.00;;;;5108031;28;20512;-75
2021/11/14 09:11:10;;;;;;;0.10;0.10;;;;;15.20;100413.00;;;;5108662;28;20952;-75
2021/11/14 09:13:40;;;;;;;0.00;0.00;;;;;15.40;100441.00;;;;5107953;28;20079;-75
2021/11/14 09:16:10;;;;;;;0.10;0.10;;;;;15.60;100430.00;;;;5090571;28;20048;-75
2021/11/14 09:18:39;;;;;;;0.00;0.00;;;;;15.80;100446.00;;;;5107746;28;20126;-75
2021/11/14 09:21:10;;;;;;;0.00;0.00;;;;;15.90;100466.00;;;;5108166;28;20038;-76
2021/11/14 09:23:40;;;;;;;0.15;0.15;;;;;16.20;100473.00;;;;5107892;28;20047;-76
2021/11/14 09:26:09;;;;;;;0.52;0.45;;;;;16.50;100476.00;;;;5107560;28;20494;-76
2021/11/14 09:28:42;;;;;;;0.35;0.35;;;;;16.60;100472.00;;;;5107555;28;20043;-75
2021/11/14 09:31:12;;;;;;;0.10;0.10;;;;;16.70;100470.00;;;;5108392;28;20046;-75
2021/11/14 09:33:45;;;;;;;0.00;0.00;;;;;16.80;100472.00;;;;5107603;28;20506;-75
2021/11/14 09:36:15;;;;;;;0.00;0.00;;;;;17.00;100470.00;;;;5108183;28;20116;-75
2021/11/14 09:38:45;;;;;;;0.15;0.15;;;;;17.30;100493.00;;;;5107445;28;20545;-75
2021/11/14 09:41:15;;;;;;;1.02;0.55;;;;;17.40;100481.00;;;;5106984;28;20036;-75
2021/11/14 09:43:45;;;;;;;0.13;0.10;;;;;17.60;100499.00;;;;5107462;28;20043;-75
2021/11/14 09:46:34;;;;;;;0.08;0.05;;;;;17.90;100436.00;;;;5107113;28;20089;-74
2021/11/14 09:49:07;;;;;;;0.10;0.00;;;;;18.30;100502.00;;;;5089460;28;20470;-75
2021/11/14 09:51:37;;;;;;;0.45;0.45;;;;;18.40;100499.00;;;;5107793;28;20046;-75
2021/11/14 09:54:08;;;;;;;0.13;0.13;;;;;18.50;100487.00;;;;5108160;28;20425;-75
2021/11/14 09:56:38;;;;;;;0.00;0.00;;;;;18.50;100487.00;;;;5107220;28;20785;-75
2021/11/14 09:59:08;;;;;;;0.00;0.00;;;;;18.70;100497.00;;;;5107131;28;20092;-75
2021/11/14 10:01:38;;;;;;;0.10;0.10;;;;;18.80;100504.00;;;;5106870;28;20044;-75
2021/11/14 10:04:09;;;;;;;0.00;0.00;;;;;19.10;100510.00;;;;5107009;28;20130;-75
2021/11/14 10:06:39;;;;;;;0.00;0.00;;;;;19.70;100504.00;;;;5107392;28;20444;-75
2021/11/14 10:09:08;;;;;;;0.00;0.00;;;;;22.00;100417.00;;;;5107695;28;20043;-75
2021/11/14 10:11:41;;;;;;;0.00;0.00;;;;;25.20;100397.00;;;;5107547;28;20043;-75
2021/11/14 10:14:20;;;;;;;0.08;0.03;;;;;26.20;100401.00;;;;5106729;28;20047;-76
2021/11/14 10:16:51;;;;;;;0.00;0.00;;;;;27.50;100369.00;;;;5107413;28;20039;-75
2021/11/14 10:19:20;;;;;;;0.00;0.00;;;;;28.50;100363.00;;;;5107659;28;20526;-75
2021/11/14 10:21:50;;;;;;;0.10;0.10;;;;;28.50;100351.00;;;;5107051;28;20049;-76
2021/11/14 10:24:19;;;;;;;0.00;0.00;;;;;28.50;100377.00;;;;5106836;28;20046;-76
2021/11/14 10:26:49;;;;;;;1.85;1.75;;;;;28.80;100380.00;;;;5106706;28;20031;-76
2021/11/14 10:29:19;;;;;;;0.75;0.45;;;;;29.10;100383.00;;;;5107279;28;20490;-75
2021/11/14 10:31:48;;;;;;;0.00;0.00;;;;;29.70;100375.00;;;;5107348;28;20051;-76
2021/11/14 10:34:18;;;;;;;1.20;0.52;;;;;28.80;100408.00;;;;5107530;28;20052;-76
2021/11/14 10:36:56;;;;;;;0.00;0.00;;;;;29.70;100388.00;;;;5107071;28;20097;-75
2021/11/14 10:39:40;;;;;;;0.10;0.10;;;;;28.10;100447.00;;;;5106433;28;20511;-74
2021/11/14 10:42:18;;;;;;;0.10;0.10;;;;;28.20;100395.00;;;;5106725;28;20028;-74
2021/11/14 10:44:57;;;;;;;2.42;0.60;;;;;29.60;100372.00;;;;5106977;28;20528;-74
2021/11/14 10:47:29;;;;;;;0.00;0.00;;;;;30.70;100365.00;;;;5111231;28;20036;-73
2021/11/14 10:50:13;;;;;;;0.40;0.40;;;;;31.30;100352.00;;;;5111034;28;20054;-74
2021/11/14 10:52:56;;;;;;;0.00;0.00;;;;;30.70;100337.00;;;;5111012;28;20043;-75
2021/11/14 10:55:30;;;;;;;0.00;0.00;;;;;30.90;100345.00;;;;5109938;28;20391;-75
2021/11/14 10:58:00;;;;;;;0.00;0.00;;;;;31.00;100359.00;;;;5110135;28;20039;-75
2021/11/14 11:00:30;;;;;;;0.00;0.00;;;;;30.50;100363.00;;;;5108918;28;20570;-75
2021/11/14 11:03:02;;;;;;;0.10;0.10;;;;;32.10;100335.00;;;;5110816;28;20505;-75
2021/11/14 11:05:33;;;;;;;0.00;0.00;;;;;32.20;100330.00;;;;5110932;28;20063;-75
2021/11/14 11:08:06;;;;;;;0.13;0.10;;;;;32.50;100338.00;;;;5110549;28;20463;-75
2021/11/14 11:10:38;;;;;;;0.00;0.00;;;;;33.70;100320.00;;;;5110559;28;20112;-75
2021/11/14 11:13:12;;;;;;;0.00;0.00;;;;;33.50;100332.00;;;;5110739;28;20421;-75
2021/11/14 11:15:47;;;;;;;0.00;0.00;;;;;32.90;100344.00;;;;5110241;28;20109;-75
2021/11/14 11:18:20;;;;;;;1.90;1.17;;;;;32.30;100348.00;;;;5110295;28;20123;-76
2021/11/14 11:20:56;;;;;;;0.00;0.00;;;;;32.20;100348.00;;;;5110816;28;20050;-75
2021/11/14 11:23:26;;;;;;;0.00;0.00;;;;;32.10;100333.00;;;;5110301;28;20051;-75
2021/11/14 11:25:59;;;;;;;0.00;0.00;;;;;32.20;100316.00;;;;5110280;28;20047;-75
2021/11/14 11:28:31;;;;;;;0.03;0.03;;;;;31.80;100322.00;;;;5109741;28;20035;-75
2021/11/14 11:31:03;;;;;;;0.00;0.00;;;;;30.90;100342.00;;;;5110137;28;20413;-75
2021/11/14 11:33:38;;;;;;;0.00;0.00;;;;;30.30;100343.00;;;;5091120;28;20538;-76
2021/11/14 11:36:09;;;;;;;0.00;0.00;;;;;29.80;100366.00;;;;5110361;28;20062;-76
2021/11/14 11:38:42;;;;;;;0.00;0.00;;;;;29.30;100478.00;;;;5109825;28;20406;-75
2021/11/14 11:41:18;;;;;;;0.13;0.13;;;;;29.30;100515.00;;;;5110464;28;20032;-76
2021/11/14 11:43:54;;;;;;;0.00;0.00;;;;;28.90;100503.00;;;;5109991;28;20036;-75
2021/11/14 11:46:36;;;;;;;0.10;0.10;;;;;27.70;100502.00;;;;5110594;28;20188;-75
2021/11/14 11:49:27;;;;;;;0.00;0.00;;;;;26.70;100504.00;;;;5109784;28;20043;-75
2021/11/14 11:51:58;;;;;;;0.00;0.00;;;;;26.80;100508.00;;;;5109421;28;20051;-75
2021/11/14 11:54:32;;;;;;;0.10;0.10;;;;;26.90;100511.00;;;;5109400;28;20044;-75
2021/11/14 11:57:09;;;;;;;0.13;0.13;;;;;27.10;100505.00;;;;5109460;28;20043;-75
2021/11/14 11:59:43;;;;;;;1.23;0.20;;;;;27.00;100504.00;;;;5108825;28;20039;-75
2021/11/14 12:02:16;;;;;;;0.22;0.10;;;;;27.00;100493.00;;;;5107670;28;20044;-76
2021/11/14 12:04:50;;;;;;;0.08;0.08;;;;;27.30;100487.00;;;;5109459;28;20445;-75
2021/11/14 12:07:25;;;;;;;0.00;0.00;;;;;27.40;100481.00;;;;5109713;28;20070;-76
2021/11/14 12:10:00;;;;;;;1.58;0.63;;;;;27.30;100499.00;;;;5108647;28;20114;-76
2021/11/14 12:12:33;;;;;;;0.00;0.00;;;;;27.00;100496.00;;;;5109064;28;20046;-75
2021/11/14 12:15:13;;;;;;;0.10;0.00;;;;;27.20;100495.00;;;;5108595;28;20570;-75
2021/11/14 12:17:53;;;;;;;0.00;0.00;;;;;27.40;100504.00;;;;5109056;28;20533;-75
2021/11/14 12:20:34;;;;;;;0.10;0.10;;;;;27.80;100504.00;;;;5108782;28;20040;-75
2021/11/14 12:23:05;;;;;;;;;;;;;28.30;100501.00;;;;5109159;28;20418;-76
2021/11/14 12:25:40;;;;;;;0.00;0.00;;;;;28.60;100480.00;;;;5108353;28;20387;-75
2021/11/14 12:28:12;;;;;;;0.00;0.00;;;;;29.30;100480.00;;;;5109068;28;20048;-76
2021/11/14 12:31:23;;;;;;;0.05;0.05;;;;;28.60;100473.00;;;;5108640;28;20046;-77
2021/11/14 12:33:51;;;;;;;0.00;0.00;;;;;28.20;100485.00;;;;5089367;28;20051;-76